Platzwetter / Webcam

  • Aktuelles Bild
  • Verlauf
  • Verlauf
  • Verlauf
  • Verlauf
  • Verlauf
  • Verlauf
  • Verlauf
  • Verlauf
  • Verlauf
  • Verlauf
  • Verlauf
  • Verlauf
  • Verlauf
  • Verlauf
  • Verlauf
  • Verlauf
  • Verlauf

Flugwetter Linz

[Quelle: ADDS]
METAR
LOWL 231620Z 30007KT 270V330 9999 FEW050 SCT300 26/14 Q1015 NOSIG =
TAF
LOWL 231115Z 2312/2412 25008KT 9999 FEW040 SCT300 TX25/2314Z TN17/2404Z TEMPO 2313/2320 29015KT FEW050CB BKN060 PROB30 TEMPO 2314/2320 4000 TSRA SCT020 FEW030CB BKN040 TEMPO 2320/2412 09015KT SHRA SCT030 BKN050 BECMG 2402/2405 09007KT PROB30 TEMPO 2403/2406 4000 TSRA BKN030 FEW040CB =

Flugwetter Salzburg

[Quelle: ADDS]
METAR
LOWS 231620Z 33006KT 9999 -TSRA FEW020 SCT035 FEW040CB BKN055 22/16 Q1016 TEMPO 29015G30KT 4000 TSRA =
TAF
LOWS 231115Z 2312/2412 32007KT 9999 FEW035 BKN060 TX24/2313Z TN16/2406Z TEMPO 2312/2412 32013KT SHRA SCT035TCU BKN050 PROB30 TEMPO 2313/2320 30015G25KT 4000 TSRA SCT020CB BKN060 PROB30 TEMPO 2402/2406 30015G25KT TSRA SCT020CB BKN040 =

Fliegen lernen

Die Fliegerschule der WMW...

Termine & Events

Alle Termine anzeigen...

Mietwagen

am Flugplatz Wels 
Toyota Aygo 1.0 VVTi 5tg.

1/2 Tag      25,- Euro
1 Tag   50,- Euro
Wochenende   100,- Euro

Weitere Infos...

Ju 52 Rundflüge

Ju52 Rundflüge
Neue Termine für 2018 in kürze...

+++ Aktuelle Spritpreise (28.06.2017): | Jet A-1 € 1,340 | Super Plus 98 ETBE € 1,418 | Avgas 100LL € 1,992 | +++